createdAt,value
2023-02-09T00:01:03.367Z,98644.78
2023-02-09T00:03:31.359Z,98647.28
2023-02-09T00:05:59.983Z,98638.75
2023-02-09T00:08:29.690Z,98640.53
2023-02-09T00:10:57.219Z,98636.13
2023-02-09T00:13:24.697Z,98637.88
2023-02-09T00:15:53.429Z,98637.00
2023-02-09T00:18:21.633Z,98640.44
2023-02-09T00:20:56.734Z,98633.72
2023-02-09T00:23:24.856Z,98626.09
2023-02-09T00:25:54.154Z,98619.34
2023-02-09T00:28:22.435Z,98625.34
2023-02-09T00:30:50.019Z,98621.06
2023-02-09T00:33:17.583Z,98625.34
2023-02-09T00:35:45.203Z,98631.22
2023-02-09T00:38:14.224Z,98630.22
2023-02-09T00:40:42.435Z,98620.06
2023-02-09T00:43:11.776Z,98626.09
2023-02-09T00:45:39.429Z,98618.44
2023-02-09T00:48:07.518Z,98615.00
2023-02-09T00:50:35.106Z,98620.28
2023-02-09T00:53:02.622Z,98612.72
2023-02-09T00:55:30.175Z,98606.69
2023-02-09T00:57:57.739Z,98611.00
2023-02-09T01:00:26.649Z,98605.06
2023-02-09T01:02:54.215Z,98601.81
2023-02-09T01:05:21.822Z,98603.69
2023-02-09T01:07:49.322Z,98598.47
2023-02-09T01:10:17.105Z,98595.03
2023-02-09T01:12:44.906Z,98590.75
2023-02-09T01:15:13.345Z,98593.34
2023-02-09T01:17:42.319Z,98589.97
2023-02-09T01:20:13.344Z,98587.25
2023-02-09T01:22:40.929Z,98588.88
2023-02-09T01:25:09.864Z,98584.75
2023-02-09T01:27:37.721Z,98586.38
2023-02-09T01:30:06.257Z,98579.69
2023-02-09T01:32:33.800Z,98575.47
2023-02-09T01:35:02.645Z,98580.84
2023-02-09T01:37:30.233Z,98577.59
2023-02-09T01:39:57.802Z,98582.94
2023-02-09T01:42:25.327Z,98577.09
2023-02-09T01:45:07.924Z,98577.19
2023-02-09T01:47:45.975Z,98575.59
2023-02-09T01:50:16.813Z,98566.19
2023-02-09T01:52:44.782Z,98560.16
2023-02-09T01:55:15.424Z,98555.94
2023-02-09T01:57:45.300Z,98561.06
2023-02-09T02:00:15.585Z,98559.44
2023-02-09T02:02:44.111Z,98562.06
2023-02-09T02:05:12.363Z,98559.66
2023-02-09T02:07:45.248Z,98557.19
2023-02-09T02:10:13.433Z,98553.81
2023-02-09T02:12:41.284Z,98541.88
2023-02-09T02:15:10.373Z,98533.34
2023-02-09T02:17:48.711Z,98541.94
2023-02-09T02:20:46.889Z,98545.47
2023-02-09T02:23:20.900Z,98542.09
2023-02-09T02:26:06.125Z,98547.28
2023-02-09T02:28:43.963Z,98540.28
2023-02-09T02:31:49.584Z,98531.78
2023-02-09T02:34:21.812Z,98534.34
2023-02-09T02:36:56.833Z,98536.91
2023-02-09T02:39:27.778Z,98539.69
2023-02-09T02:42:17.933Z,98536.31
2023-02-09T02:44:51.085Z,98540.63
2023-02-09T02:47:20.451Z,98522.81
2023-02-09T02:49:52.505Z,98533.03
2023-02-09T02:52:20.048Z,98535.59
2023-02-09T02:54:50.405Z,98536.38
2023-02-09T02:57:20.264Z,98531.38
2023-02-09T02:59:53.320Z,98532.09
2023-02-09T03:02:24.209Z,98525.34
2023-02-09T03:04:56.263Z,98528.81
2023-02-09T03:07:23.768Z,98528.81
2023-02-09T03:09:52.192Z,98530.59
2023-02-09T03:12:27.915Z,98533.09
2023-02-09T03:15:12.404Z,98528.06
2023-02-09T03:17:45.003Z,98523.09
2023-02-09T03:20:18.344Z,98520.47
2023-02-09T03:22:48.847Z,98511.91
2023-02-09T03:25:19.682Z,98513.50
2023-02-09T03:27:50.494Z,98516.88
2023-02-09T03:30:19.167Z,98519.38
2023-02-09T03:32:48.046Z,98510.81
2023-02-09T03:35:19.020Z,98513.22
2023-02-09T03:37:46.554Z,98513.31
2023-02-09T03:40:14.449Z,98511.69
2023-02-09T03:42:42.065Z,98519.28
2023-02-09T03:45:10.073Z,98518.44
2023-02-09T03:47:37.603Z,98519.28
2023-02-09T03:50:06.808Z,98522.66
2023-02-09T03:52:35.663Z,98515.88
2023-02-09T03:55:05.204Z,98506.63
2023-02-09T03:57:32.819Z,98507.41
2023-02-09T04:00:01.388Z,98493.84
2023-02-09T04:02:29.945Z,98498.03
2023-02-09T04:04:57.497Z,98502.25
2023-02-09T04:07:26.495Z,98501.44
2023-02-09T04:09:55.332Z,98507.44
2023-02-09T04:12:22.870Z,98500.72
2023-02-09T04:14:50.397Z,98507.66
2023-02-09T04:17:17.928Z,98503.50
2023-02-09T04:19:45.474Z,98503.50
2023-02-09T04:22:13.010Z,98510.53
2023-02-09T04:24:40.533Z,98510.59
2023-02-09T04:27:09.381Z,98515.03
2023-02-09T04:29:36.911Z,98512.50
2023-02-09T04:32:04.675Z,98505.66
2023-02-09T04:34:32.281Z,98511.63
2023-02-09T04:36:59.773Z,98515.06
2023-02-09T04:39:27.538Z,98518.50
2023-02-09T04:41:55.063Z,98526.19
2023-02-09T04:44:24.233Z,98526.25
2023-02-09T04:46:51.855Z,98527.06
2023-02-09T04:49:19.404Z,98534.91
2023-02-09T04:51:46.905Z,98533.28
2023-02-09T04:54:14.460Z,98535.84
2023-02-09T04:56:41.961Z,98538.50
2023-02-09T04:59:27.854Z,98538.53
2023-02-09T05:01:56.725Z,98543.63
2023-02-09T05:04:24.289Z,98533.38
2023-02-09T05:06:51.893Z,98529.94
2023-02-09T05:09:19.401Z,98534.13
2023-02-09T05:11:46.952Z,98540.13
2023-02-09T05:14:14.489Z,98529.84
2023-02-09T05:16:42.077Z,98530.81
2023-02-09T05:19:11.004Z,98531.47
2023-02-09T05:21:38.511Z,98531.38
2023-02-09T05:24:06.788Z,98537.28
2023-02-09T05:26:34.342Z,98538.09
2023-02-09T05:29:01.926Z,98535.44
2023-02-09T05:31:29.491Z,98538.81
2023-02-09T05:33:57.119Z,98532.78
2023-02-09T05:36:26.145Z,98539.66
2023-02-09T05:38:53.661Z,98535.34
2023-02-09T05:41:35.179Z,98533.66
2023-02-09T05:44:02.723Z,98531.97
2023-02-09T05:46:30.295Z,98533.84
2023-02-09T05:48:57.829Z,98530.50
2023-02-09T05:51:26.776Z,98528.75
2023-02-09T05:53:54.621Z,98525.38
2023-02-09T05:56:22.551Z,98540.72
2023-02-09T05:58:50.253Z,98533.13
2023-02-09T06:01:17.770Z,98536.53
2023-02-09T06:03:45.409Z,98535.72
2023-02-09T06:06:12.960Z,98542.53
2023-02-09T06:08:41.818Z,98542.63
2023-02-09T06:11:09.370Z,98540.09
2023-02-09T06:13:36.886Z,98549.63
2023-02-09T06:16:05.003Z,98548.13
2023-02-09T06:18:32.589Z,98560.03
2023-02-09T06:21:00.159Z,98566.06
2023-02-09T06:23:27.702Z,98572.00
2023-02-09T06:25:57.541Z,98584.00
2023-02-09T06:28:25.368Z,98585.75
2023-02-09T06:30:54.857Z,98591.75
2023-02-09T06:33:22.492Z,98594.34
2023-02-09T06:35:52.297Z,98593.47
2023-02-09T06:38:20.504Z,98593.47
2023-02-09T06:40:48.401Z,98596.19
2023-02-09T06:43:17.655Z,98594.50
2023-02-09T06:45:45.366Z,98602.09
2023-02-09T06:48:12.894Z,98609.78
2023-02-09T06:50:40.625Z,98608.03
2023-02-09T06:53:08.333Z,98606.28
2023-02-09T06:55:36.040Z,98607.03
2023-02-09T06:58:03.920Z,98607.88
2023-02-09T07:00:33.058Z,98613.84
2023-02-09T07:03:01.450Z,98615.50
2023-02-09T07:05:29.090Z,98610.31
2023-02-09T07:07:57.127Z,98610.25
2023-02-09T07:10:24.659Z,98608.41
2023-02-09T07:12:52.224Z,98598.94
2023-02-09T07:15:20.004Z,98601.41
2023-02-09T07:17:48.876Z,98597.94
2023-02-09T07:20:16.434Z,98588.38
2023-02-09T07:22:44.132Z,98583.19
2023-02-09T07:25:11.701Z,98587.31
2023-02-09T07:27:39.245Z,98583.72
2023-02-09T07:30:07.417Z,98582.75
2023-02-09T07:32:34.932Z,98580.97
2023-02-09T07:35:03.828Z,98570.44
2023-02-09T07:37:31.555Z,98565.09
2023-02-09T07:39:59.164Z,98573.19
2023-02-09T07:42:26.726Z,98563.56
2023-02-09T07:44:54.268Z,98567.53
2023-02-09T07:47:21.820Z,98569.84
2023-02-09T07:49:49.538Z,98565.38
2023-02-09T07:52:18.393Z,98559.84
2023-02-09T07:54:45.928Z,98547.59
2023-02-09T07:57:14.317Z,98558.47
2023-02-09T07:59:41.814Z,98553.84
2023-02-09T08:02:18.037Z,98549.94
2023-02-09T08:04:45.894Z,98553.06
2023-02-09T08:07:13.581Z,98547.66
2023-02-09T08:09:44.940Z,98549.31
2023-02-09T08:12:12.512Z,98557.56
2023-02-09T08:14:44.365Z,98563.84
2023-02-09T08:17:25.825Z,98549.78
2023-02-09T08:19:55.213Z,98558.69
2023-02-09T08:22:23.442Z,98545.47
2023-02-09T08:24:52.740Z,98558.59
2023-02-09T08:27:20.426Z,98554.56
2023-02-09T08:29:49.140Z,98555.84
2023-02-09T08:32:16.816Z,98555.28
2023-02-09T08:34:44.423Z,98554.50
2023-02-09T08:37:11.915Z,98558.41
2023-02-09T08:39:39.407Z,98550.13
2023-02-09T08:42:08.297Z,98554.91
2023-02-09T08:44:35.937Z,98547.25
2023-02-09T08:47:03.653Z,98563.47
2023-02-09T08:49:31.270Z,98563.66
2023-02-09T08:51:58.950Z,98558.28
2023-02-09T08:54:26.882Z,98561.44
2023-02-09T08:56:54.416Z,98563.34
2023-02-09T08:59:23.409Z,98567.63
2023-02-09T09:01:50.908Z,98574.69
2023-02-09T09:04:18.434Z,98570.63
2023-02-09T09:06:47.996Z,98567.59
2023-02-09T09:09:15.760Z,98564.69
2023-02-09T09:11:43.319Z,98563.75
2023-02-09T09:14:10.839Z,98571.19
2023-02-09T09:16:39.769Z,98559.34
2023-02-09T09:19:07.369Z,98557.63
2023-02-09T09:21:34.958Z,98552.84
2023-02-09T09:24:02.991Z,98554.13
2023-02-09T09:26:30.561Z,98555.66
2023-02-09T09:28:58.070Z,98557.31
2023-02-09T09:31:25.770Z,98558.34
2023-02-09T09:33:56.072Z,98555.75
2023-02-09T09:36:23.596Z,98557.81
2023-02-09T09:38:51.098Z,98558.28
2023-02-09T09:41:22.417Z,98555.44
2023-02-09T09:43:50.249Z,98552.19
2023-02-09T09:46:20.548Z,98546.53
2023-02-09T09:48:50.490Z,98540.91
2023-02-09T09:51:21.986Z,98548.53
2023-02-09T09:53:51.318Z,98540.16
2023-02-09T09:56:20.235Z,98551.06
2023-02-09T09:58:48.505Z,98545.53
2023-02-09T10:01:17.920Z,98538.50
2023-02-09T10:03:45.613Z,98545.41
2023-02-09T10:06:16.916Z,98539.03
2023-02-09T10:08:48.957Z,98545.34
2023-02-09T10:11:18.746Z,98548.63
2023-02-09T10:13:50.327Z,98551.94
2023-02-09T10:16:19.543Z,98554.88
2023-02-09T10:18:51.264Z,98559.13
2023-02-09T10:21:19.281Z,98551.19
2023-02-09T10:23:49.521Z,98547.38
2023-02-09T10:26:23.248Z,98546.13
2023-02-09T10:28:52.787Z,98543.66
2023-02-09T10:31:25.577Z,98543.22
2023-02-09T10:33:58.069Z,98540.00
2023-02-09T10:36:28.490Z,98542.41
2023-02-09T10:39:10.928Z,98538.22
2023-02-09T10:41:40.700Z,98526.38
2023-02-09T10:44:12.601Z,98526.63
2023-02-09T10:46:40.664Z,98527.78
2023-02-09T10:49:27.285Z,98523.59
2023-02-09T10:52:01.930Z,98515.19
2023-02-09T10:54:30.947Z,98512.88
2023-02-09T10:56:59.169Z,98513.81
2023-02-09T10:59:27.528Z,98513.03
2023-02-09T11:01:57.431Z,98503.56
2023-02-09T11:04:26.961Z,98505.88
2023-02-09T11:06:56.539Z,98507.47
2023-02-09T11:09:28.496Z,98495.16
2023-02-09T11:11:57.574Z,98501.41
2023-02-09T11:14:25.318Z,98500.94
2023-02-09T11:17:14.645Z,98487.56
2023-02-09T11:19:53.757Z,98485.97
2023-02-09T11:22:30.285Z,98491.69
2023-02-09T11:25:05.435Z,98483.22
2023-02-09T11:27:46.337Z,98477.09
2023-02-09T11:30:26.628Z,98475.16
2023-02-09T11:32:56.686Z,98479.41
2023-02-09T11:35:27.742Z,98474.69
2023-02-09T11:37:57.818Z,98476.56
2023-02-09T11:40:29.268Z,98478.16
2023-02-09T11:43:05.798Z,98473.22
2023-02-09T11:45:36.661Z,98480.84
2023-02-09T11:48:10.444Z,98479.59
2023-02-09T11:50:44.267Z,98475.16
2023-02-09T11:53:19.548Z,98472.56
2023-02-09T11:55:48.793Z,98458.56
2023-02-09T11:58:45.494Z,98456.59
2023-02-09T12:01:30.958Z,98460.91
2023-02-09T12:04:04.286Z,98452.75
2023-02-09T12:06:37.317Z,98459.34
2023-02-09T12:09:12.213Z,98458.06
2023-02-09T12:11:47.809Z,98455.97
2023-02-09T12:14:24.700Z,98462.69
2023-02-09T12:16:59.372Z,98460.06
2023-02-09T12:19:33.965Z,98453.19
2023-02-09T12:22:34.725Z,98448.91
2023-02-09T12:25:15.270Z,98454.19
2023-02-09T12:27:43.465Z,98455.47
2023-02-09T12:30:55.986Z,98452.03
2023-02-09T12:33:32.241Z,98455.38
2023-02-09T12:36:01.624Z,98451.19
2023-02-09T12:38:49.561Z,98446.63
2023-02-09T12:41:19.039Z,98443.38
2023-02-09T12:43:47.791Z,98442.28
2023-02-09T12:46:26.662Z,98437.66
2023-02-09T12:49:08.699Z,98435.72
2023-02-09T12:51:52.578Z,98433.13
2023-02-09T12:54:44.377Z,98441.03
2023-02-09T12:57:57.991Z,98449.78
2023-02-09T13:00:33.449Z,98447.31
2023-02-09T13:03:10.988Z,98442.00
2023-02-09T13:05:44.705Z,98444.25
2023-02-09T13:08:27.049Z,98444.75
2023-02-09T13:10:58.755Z,98441.56
2023-02-09T13:13:34.267Z,98442.69
2023-02-09T13:16:43.174Z,98449.41
2023-02-09T13:19:24.109Z,98445.88
2023-02-09T13:22:03.272Z,98449.69
2023-02-09T13:24:36.659Z,98452.19
2023-02-09T13:27:04.505Z,98443.91
2023-02-09T13:29:33.107Z,98445.13
2023-02-09T13:32:06.570Z,98437.81
2023-02-09T13:34:38.043Z,98433.16
2023-02-09T13:37:19.906Z,98435.06
2023-02-09T13:39:54.254Z,98432.56
2023-02-09T13:42:23.538Z,98425.56
2023-02-09T13:44:52.046Z,98430.13
2023-02-09T13:47:19.959Z,98435.16
2023-02-09T13:49:57.589Z,98423.22
2023-02-09T13:52:26.909Z,98417.97
2023-02-09T13:54:54.942Z,98418.47
2023-02-09T13:57:30.776Z,98411.88
2023-02-09T14:00:02.884Z,98417.84
2023-02-09T14:02:30.640Z,98413.00
2023-02-09T14:05:00.130Z,98414.94
2023-02-09T14:07:32.002Z,98420.09
2023-02-09T14:10:04.583Z,98411.34
2023-02-09T14:12:56.484Z,98414.34
2023-02-09T14:15:46.621Z,98421.75
2023-02-09T14:18:45.032Z,98406.91
2023-02-09T14:21:22.634Z,98415.72
2023-02-09T14:24:21.245Z,98418.19
2023-02-09T14:26:55.436Z,98413.81
2023-02-09T14:29:26.269Z,98418.00
2023-02-09T14:31:56.154Z,98407.28
2023-02-09T14:34:28.956Z,98406.94
2023-02-09T14:36:57.910Z,98401.19
2023-02-09T14:39:30.822Z,98403.34
2023-02-09T14:42:04.048Z,98407.63
2023-02-09T14:44:31.863Z,98401.56
2023-02-09T14:47:00.453Z,98405.09
2023-02-09T14:49:29.336Z,98401.91
2023-02-09T14:52:03.198Z,98397.63
2023-02-09T14:54:34.029Z,98397.13
2023-02-09T14:57:03.723Z,98394.44
2023-02-09T14:59:31.981Z,98393.69
2023-02-09T15:01:59.657Z,98393.38
2023-02-09T15:04:27.178Z,98383.94
2023-02-09T15:07:01.731Z,98390.84
2023-02-09T15:09:34.974Z,98393.72
2023-02-09T15:12:05.846Z,98400.84
2023-02-09T15:14:37.365Z,98388.56
2023-02-09T15:17:15.631Z,98392.22
2023-02-09T15:19:43.463Z,98396.75
2023-02-09T15:22:14.991Z,98391.88
2023-02-09T15:24:44.472Z,98398.25
2023-02-09T15:27:16.195Z,98393.03
2023-02-09T15:29:43.689Z,98395.81
2023-02-09T15:32:14.885Z,98405.75
2023-02-09T15:34:42.489Z,98406.22
2023-02-09T15:37:16.448Z,98413.44
2023-02-09T15:39:45.330Z,98416.72
2023-02-09T15:42:32.773Z,98427.28
2023-02-09T15:45:18.500Z,98434.19
2023-02-09T15:47:56.398Z,98441.63
2023-02-09T15:50:23.988Z,98445.69
2023-02-09T15:52:51.529Z,98448.19
2023-02-09T15:55:21.623Z,98453.69
2023-02-09T15:57:50.607Z,98451.53
2023-02-09T16:00:19.641Z,98452.38
2023-02-09T16:02:48.864Z,98472.56
2023-02-09T16:05:16.486Z,98459.88
2023-02-09T16:07:44.240Z,98465.69
2023-02-09T16:10:14.530Z,98464.94
2023-02-09T16:12:43.403Z,98467.84
2023-02-09T16:15:16.005Z,98466.97
2023-02-09T16:17:43.617Z,98467.41
2023-02-09T16:20:12.589Z,98464.56
2023-02-09T16:22:42.254Z,98460.00
2023-02-09T16:25:18.086Z,98453.31
2023-02-09T16:27:47.235Z,98463.09
2023-02-09T16:30:19.758Z,98480.38
2023-02-09T16:32:47.360Z,98474.97
2023-02-09T16:35:17.169Z,98484.16
2023-02-09T16:37:46.678Z,98484.34
2023-02-09T16:40:25.625Z,98493.56
2023-02-09T16:42:55.428Z,98499.44
2023-02-09T16:45:23.705Z,98493.00
2023-02-09T16:47:54.858Z,98500.19
2023-02-09T16:50:24.992Z,98494.50
2023-02-09T16:52:54.131Z,98509.34
2023-02-09T16:55:25.185Z,98502.78
2023-02-09T16:57:56.071Z,98508.09
2023-02-09T17:00:24.660Z,98514.53
2023-02-09T17:02:54.855Z,98511.38
2023-02-09T17:05:25.639Z,98505.66
2023-02-09T17:07:55.576Z,98499.63
2023-02-09T17:10:26.019Z,98494.06
2023-02-09T17:12:54.915Z,98504.31
2023-02-09T17:15:30.592Z,98505.28
2023-02-09T17:18:02.388Z,98505.53
2023-02-09T17:20:33.869Z,98512.63
2023-02-09T17:23:01.433Z,98513.41
2023-02-09T17:25:28.999Z,98511.84
2023-02-09T17:27:58.120Z,98510.28
2023-02-09T17:30:25.747Z,98511.00
2023-02-09T17:32:59.497Z,98501.78
2023-02-09T17:35:52.976Z,98498.19
2023-02-09T17:38:22.198Z,98498.09
2023-02-09T17:40:49.939Z,98510.47
2023-02-09T17:43:18.854Z,98514.25
2023-02-09T17:45:49.289Z,98510.25
2023-02-09T17:48:17.960Z,98519.81
2023-02-09T17:50:46.552Z,98518.22
2023-02-09T17:53:16.316Z,98514.91
2023-02-09T17:55:45.172Z,98517.13
2023-02-09T17:58:13.806Z,98529.88
2023-02-09T18:00:44.788Z,98537.84
2023-02-09T18:03:15.630Z,98534.50
2023-02-09T18:05:44.096Z,98538.16
2023-02-09T18:08:11.914Z,98542.59
2023-02-09T18:10:39.694Z,98540.06
2023-02-09T18:13:07.270Z,98538.09
2023-02-09T18:15:36.468Z,98524.03
2023-02-09T18:18:05.490Z,98504.91
2023-02-09T18:20:34.618Z,98513.03
2023-02-09T18:23:02.672Z,98510.78
2023-02-09T18:25:32.709Z,98512.50
2023-02-09T18:28:00.529Z,98522.22
2023-02-09T18:30:30.339Z,98526.59
2023-02-09T18:32:58.363Z,98525.00
2023-02-09T18:35:31.620Z,98519.28
2023-02-09T18:37:59.169Z,98536.94
2023-02-09T18:40:27.046Z,98555.13
2023-02-09T18:42:54.559Z,98558.50
2023-02-09T18:45:22.468Z,98568.03
2023-02-09T18:47:50.176Z,98582.03
2023-02-09T18:50:19.974Z,98571.91
2023-02-09T18:52:50.912Z,98580.56
2023-02-09T18:55:19.098Z,98583.59
2023-02-09T18:57:46.960Z,98584.69
2023-02-09T19:00:18.214Z,98587.50
2023-02-09T19:02:45.825Z,98587.69
2023-02-09T19:05:15.011Z,98583.56
2023-02-09T19:07:43.849Z,98594.09
2023-02-09T19:10:13.875Z,98591.88
2023-02-09T19:12:41.894Z,98583.41
2023-02-09T19:15:09.761Z,98592.94
2023-02-09T19:17:37.293Z,98599.13
2023-02-09T19:20:04.950Z,98595.06
2023-02-09T19:22:33.025Z,98597.53
2023-02-09T19:25:00.575Z,98600.22
2023-02-09T19:27:29.764Z,98593.38
2023-02-09T19:29:58.706Z,98590.22
2023-02-09T19:32:27.136Z,98590.97
2023-02-09T19:34:54.937Z,98593.66
2023-02-09T19:37:22.903Z,98589.31
2023-02-09T19:40:00.140Z,98590.19
2023-02-09T19:42:29.059Z,98588.63
2023-02-09T19:44:57.716Z,98605.81
2023-02-09T19:47:27.302Z,98607.47
2023-02-09T19:49:55.704Z,98612.56
2023-02-09T19:52:23.779Z,98611.84
2023-02-09T19:54:51.812Z,98617.16
2023-02-09T19:57:19.702Z,98627.75
2023-02-09T19:59:49.058Z,98626.06
2023-02-09T20:02:17.967Z,98620.22
2023-02-09T20:04:45.974Z,98611.97
2023-02-09T20:07:14.668Z,98628.28
2023-02-09T20:09:42.376Z,98628.25
2023-02-09T20:12:09.933Z,98627.44
2023-02-09T20:14:38.114Z,98633.50
2023-02-09T20:17:06.972Z,98636.97
2023-02-09T20:19:36.912Z,98642.94
2023-02-09T20:22:04.620Z,98642.25
2023-02-09T20:24:32.240Z,98649.19
2023-02-09T20:26:59.827Z,98638.88
2023-02-09T20:29:27.379Z,98624.72
2023-02-09T20:31:55.035Z,98630.59
2023-02-09T20:34:23.923Z,98629.91
2023-02-09T20:36:51.470Z,98634.41
2023-02-09T20:39:19.244Z,98629.09
2023-02-09T20:42:01.985Z,98621.25
2023-02-09T20:44:46.913Z,98632.38
2023-02-09T20:47:14.500Z,98614.88
2023-02-09T20:49:43.417Z,98612.34
2023-02-09T20:52:10.985Z,98618.41
2023-02-09T20:54:38.586Z,98621.81
2023-02-09T20:57:06.291Z,98619.28
2023-02-09T20:59:34.885Z,98620.03
2023-02-09T21:02:02.853Z,98612.47
2023-02-09T21:04:30.631Z,98613.31
2023-02-09T21:07:00.470Z,98618.50
2023-02-09T21:09:29.120Z,98621.88
2023-02-09T21:11:57.492Z,98616.72
2023-02-09T21:14:41.173Z,98616.81
2023-02-09T21:17:09.590Z,98617.69
2023-02-09T21:19:37.225Z,98621.25
2023-02-09T21:22:06.231Z,98621.53
2023-02-09T21:24:34.044Z,98631.63
2023-02-09T21:27:01.628Z,98630.88
2023-02-09T21:29:29.547Z,98625.72
2023-02-09T21:31:57.862Z,98632.81
2023-02-09T21:34:25.446Z,98629.53
2023-02-09T21:36:53.031Z,98628.81
2023-02-09T21:39:21.901Z,98632.28
2023-02-09T21:42:07.068Z,98638.50
2023-02-09T21:44:36.487Z,98649.81
2023-02-09T21:47:04.113Z,98650.75
2023-02-09T21:49:32.308Z,98652.63
2023-02-09T21:51:59.912Z,98637.38
2023-02-09T21:54:33.113Z,98645.84
2023-02-09T21:57:01.216Z,98648.41
2023-02-09T21:59:28.910Z,98656.00
2023-02-09T22:01:56.698Z,98662.84
2023-02-09T22:04:24.337Z,98670.56
2023-02-09T22:06:52.442Z,98645.88
2023-02-09T22:09:22.467Z,98651.16
2023-02-09T22:11:51.333Z,98650.22
2023-02-09T22:14:18.837Z,98654.47
2023-02-09T22:16:47.223Z,98653.66
2023-02-09T22:19:14.862Z,98659.63
2023-02-09T22:21:42.441Z,98648.63
2023-02-09T22:24:13.292Z,98665.03
2023-02-09T22:26:41.641Z,98666.91
2023-02-09T22:29:11.991Z,98671.94
2023-02-09T22:31:39.594Z,98669.44
2023-02-09T22:34:07.428Z,98672.91
2023-02-09T22:36:35.738Z,98673.97
2023-02-09T22:39:05.372Z,98673.31
2023-02-09T22:41:33.328Z,98673.38
2023-02-09T22:44:02.956Z,98680.31
2023-02-09T22:46:34.570Z,98682.94
2023-02-09T22:49:05.582Z,98687.94
2023-02-09T22:51:33.968Z,98688.81
2023-02-09T22:54:02.027Z,98692.22
2023-02-09T22:56:30.802Z,98689.78
2023-02-09T22:58:59.600Z,98690.72
2023-02-09T23:01:27.634Z,98688.19
2023-02-09T23:03:56.833Z,98704.44
2023-02-09T23:06:27.006Z,98700.38
2023-02-09T23:08:55.750Z,98704.81
2023-02-09T23:11:23.870Z,98708.88
2023-02-09T23:14:03.848Z,98713.31
2023-02-09T23:16:36.725Z,98716.00
2023-02-09T23:19:08.174Z,98715.34
2023-02-09T23:21:38.057Z,98721.28
2023-02-09T23:24:06.326Z,98708.63
2023-02-09T23:26:33.997Z,98723.97
2023-02-09T23:29:03.376Z,98728.19
2023-02-09T23:31:31.270Z,98726.63
2023-02-09T23:33:58.843Z,98732.69
2023-02-09T23:36:29.543Z,98729.16
2023-02-09T23:38:59.471Z,98732.72
2023-02-09T23:41:27.466Z,98736.25
2023-02-09T23:43:55.583Z,98739.53
2023-02-09T23:46:24.487Z,98740.38
2023-02-09T23:48:54.638Z,98746.44
2023-02-09T23:51:26.423Z,98744.78
2023-02-09T23:53:55.956Z,98746.31
2023-02-09T23:56:23.985Z,98741.28
2023-02-09T23:58:52.840Z,98737.06
